PWSweather.com
Personal Weather Stations
Station Observations
ITROMSHA6
HarstadNO 9407

HarstadNO 9407

Lat: 68.7814767, Lon: 16.5297091

Elevation: 145

Station Type: Davis Vantage Pro2

High Low Average
Temperature 35.0°F1.7°C 29.0°F-1.7°C 32.0°F0.0°C
Dew Point 29.5°F-1.4°C 23.9°F-4.5°C 26.7°F-2.9°C
Winds 11.0 mph 17.7 kmh Calm Calm 3.0 mph SW4.8 kmh SW
Wind Gusts 13.0 mph20.9 kmh -- 1.0 mph1.6 kmh
Humidity 91% 67% 81%
Pressure 29.55 in1000.7 mb 29.44 in997.0 mb -
Precipitation 0.13 in3.3 mm - -
Hour Temp Dew Point Humidity Winds Wind Gusts Pressure Precip Precip Rate Daily Precip Total
12:00 AM 31.6°F-0.2°C 27.7°F-2.4°C 85% 1.0 mph WSW1.6 kmh WSW 3.0 mph4.8 kmh 29.49 in998.6 mb 0.00 in0.0 mm 0.00 in0.0 mm 0.00 in0.0 mm
12:05 AM 31.7°F-0.2°C 27.3°F-2.6°C 84% 1.0 mph NW1.6 kmh NW -- 29.49 in998.6 mb 0.00 in0.0 mm 0.00 in0.0 mm 0.00 in0.0 mm
12:10 AM 32.0°F0.0°C 27.5°F-2.5°C 83% 1.0 mph W1.6 kmh W -- 29.49 in998.6 mb 0.00 in0.0 mm 0.00 in0.0 mm 0.00 in0.0 mm
12:15 AM 32.4°F0.2°C 27.5°F-2.5°C 82% 5.0 mph NE8.0 kmh NE -- 29.49 in998.6 mb 0.00 in0.0 mm 0.00 in0.0 mm 0.00 in0.0 mm
12:20 AM 32.7°F0.4°C 27.5°F-2.5°C 81% Calm Calm -- 29.49 in998.6 mb 0.00 in0.0 mm 0.00 in0.0 mm 0.00 in0.0 mm
12:25 AM 32.7°F0.4°C 27.3°F-2.6°C 80% Calm Calm 8.0 mph12.9 kmh 29.49 in998.6 mb 0.00 in0.0 mm 0.00 in0.0 mm 0.00 in0.0 mm
12:30 AM 32.7°F0.4°C 27.5°F-2.5°C 81% Calm Calm -- 29.49 in998.6 mb 0.00 in0.0 mm 0.00 in0.0 mm 0.00 in0.0 mm
12:35 AM 32.6°F0.3°C 27.3°F-2.6°C 81% Calm Calm -- 29.49 in998.6 mb 0.00 in0.0 mm 0.00 in0.0 mm 0.00 in0.0 mm
12:40 AM 32.5°F0.3°C 27.3°F-2.6°C 81% 1.0 mph WSW1.6 kmh WSW -- 29.48 in998.3 mb 0.00 in0.0 mm 0.00 in0.0 mm 0.00 in0.0 mm
12:45 AM 32.4°F0.2°C 27.1°F-2.7°C 81% 1.0 mph WSW1.6 kmh WSW -- 29.48 in998.3 mb 0.00 in0.0 mm 0.00 in0.0 mm 0.00 in0.0 mm
12:50 AM 32.3°F0.2°C 27.1°F-2.7°C 81% Calm Calm 2.0 mph3.2 kmh 29.48 in998.3 mb 0.00 in0.0 mm 0.00 in0.0 mm 0.00 in0.0 mm
12:55 AM 32.2°F0.1°C 27.0°F-2.8°C 81% Calm Calm -- 29.48 in998.3 mb 0.00 in0.0 mm 0.00 in0.0 mm 0.00 in0.0 mm
01:00 AM 32.3°F0.2°C 27.0°F-2.8°C 80% 1.0 mph W1.6 kmh W -- 29.48 in998.3 mb 0.00 in0.0 mm 0.00 in0.0 mm 0.00 in0.0 mm
01:05 AM 32.4°F0.2°C 27.0°F-2.8°C 80% 1.0 mph W1.6 kmh W -- 29.48 in998.3 mb 0.00 in0.0 mm 0.00 in0.0 mm 0.00 in0.0 mm
01:10 AM 32.4°F0.2°C 27.0°F-2.8°C 80% 2.0 mph WNW3.2 kmh WNW -- 29.48 in998.3 mb 0.00 in0.0 mm 0.00 in0.0 mm 0.00 in0.0 mm
01:15 AM 32.5°F0.3°C 26.8°F-2.9°C 79% 3.0 mph WSW4.8 kmh WSW 8.0 mph12.9 kmh 29.48 in998.3 mb 0.00 in0.0 mm 0.00 in0.0 mm 0.00 in0.0 mm
01:20 AM 32.7°F0.4°C 26.6°F-3.0°C 78% 5.0 mph W8.0 kmh W -- 29.48 in998.3 mb 0.00 in0.0 mm 0.00 in0.0 mm 0.00 in0.0 mm
01:25 AM 32.7°F0.4°C 26.6°F-3.0°C 78% Calm Calm -- 29.47 in998.0 mb 0.00 in0.0 mm 0.00 in0.0 mm 0.00 in0.0 mm
01:30 AM 32.7°F0.4°C 26.6°F-3.0°C 78% 3.0 mph NW4.8 kmh NW -- 29.47 in998.0 mb 0.00 in0.0 mm 0.00 in0.0 mm 0.00 in0.0 mm
01:35 AM 32.7°F0.4°C 26.6°F-3.0°C 78% Calm Calm -- 29.47 in998.0 mb 0.00 in0.0 mm 0.00 in0.0 mm 0.00 in0.0 mm
01:40 AM 32.7°F0.4°C 26.6°F-3.0°C 78% 4.0 mph S6.4 kmh S 6.0 mph9.7 kmh 29.47 in998.0 mb 0.00 in0.0 mm 0.00 in0.0 mm 0.00 in0.0 mm
01:45 AM 32.8°F0.4°C 27.0°F-2.8°C 79% 6.0 mph W9.7 kmh W -- 29.47 in998.0 mb 0.00 in0.0 mm 0.00 in0.0 mm 0.00 in0.0 mm
01:50 AM 32.7°F0.4°C 27.3°F-2.6°C 80% 6.0 mph NW9.7 kmh NW -- 29.47 in998.0 mb 0.00 in0.0 mm 0.00 in0.0 mm 0.00 in0.0 mm
01:55 AM 32.4°F0.2°C 27.5°F-2.5°C 82% 1.0 mph WSW1.6 kmh WSW -- 29.46 in997.6 mb 0.00 in0.0 mm 0.00 in0.0 mm 0.00 in0.0 mm
02:00 AM 32.1°F0.1°C 27.9°F-2.3°C 84% 7.0 mph WNW11.3 kmh WNW -- 29.46 in997.6 mb 0.00 in0.0 mm 0.00 in0.0 mm 0.00 in0.0 mm
02:05 AM 32.0°F0.0°C 28.0°F-2.2°C 85% 6.0 mph W9.7 kmh W 8.0 mph12.9 kmh 29.46 in997.6 mb 0.00 in0.0 mm 0.00 in0.0 mm 0.00 in0.0 mm
02:10 AM 31.9°F-0.1°C 27.9°F-2.3°C 85% 2.0 mph W3.2 kmh W -- 29.46 in997.6 mb 0.00 in0.0 mm 0.00 in0.0 mm 0.00 in0.0 mm
02:15 AM 31.9°F-0.1°C 27.9°F-2.3°C 85% 2.0 mph W3.2 kmh W -- 29.46 in997.6 mb 0.00 in0.0 mm 0.00 in0.0 mm 0.00 in0.0 mm
02:20 AM 32.0°F0.0°C 28.2°F-2.1°C 86% Calm Calm -- 29.46 in997.6 mb 0.00 in0.0 mm 0.00 in0.0 mm 0.00 in0.0 mm
02:25 AM 32.1°F0.1°C 28.4°F-2.0°C 86% 3.0 mph SW4.8 kmh SW -- 29.46 in997.6 mb 0.00 in0.0 mm 0.00 in0.0 mm 0.00 in0.0 mm
02:30 AM 32.2°F0.1°C 28.4°F-2.0°C 86% 1.0 mph WNW1.6 kmh WNW 11.0 mph17.7 kmh 29.47 in998.0 mb 0.00 in0.0 mm 0.00 in0.0 mm 0.00 in0.0 mm
02:35 AM 31.5°F-0.3°C 27.7°F-2.4°C 86% 3.0 mph NE4.8 kmh NE -- 29.46 in997.6 mb 0.00 in0.0 mm 0.00 in0.0 mm 0.00 in0.0 mm
02:40 AM 31.0°F-0.6°C 27.9°F-2.3°C 88% 4.0 mph N6.4 kmh N -- 29.46 in997.6 mb 0.00 in0.0 mm 0.00 in0.0 mm 0.00 in0.0 mm
02:45 AM 30.8°F-0.7°C 27.9°F-2.3°C 89% 4.0 mph NNW6.4 kmh NNW -- 29.46 in997.6 mb 0.00 in0.0 mm 0.00 in0.0 mm 0.00 in0.0 mm
02:50 AM 30.7°F-0.7°C 28.2°F-2.1°C 90% 2.0 mph NNE3.2 kmh NNE -- 29.47 in998.0 mb 0.00 in0.0 mm 0.00 in0.0 mm 0.00 in0.0 mm
02:55 AM 30.7°F-0.7°C 28.2°F-2.1°C 90% Calm Calm 5.0 mph8.0 kmh 29.46 in997.6 mb 0.00 in0.0 mm 0.00 in0.0 mm 0.00 in0.0 mm
03:00 AM 30.7°F-0.7°C 28.4°F-2.0°C 91% Calm Calm -- 29.46 in997.6 mb 0.00 in0.0 mm 0.00 in0.0 mm 0.00 in0.0 mm
03:05 AM 30.7°F-0.7°C 28.4°F-2.0°C 91% 1.0 mph WSW1.6 kmh WSW -- 29.46 in997.6 mb 0.00 in0.0 mm 0.00 in0.0 mm 0.00 in0.0 mm
03:10 AM 30.7°F-0.7°C 28.4°F-2.0°C 91% 3.0 mph WSW4.8 kmh WSW -- 29.46 in997.6 mb 0.00 in0.0 mm 0.00 in0.0 mm 0.00 in0.0 mm
03:15 AM 30.7°F-0.7°C 28.4°F-2.0°C 91% Calm Calm -- 29.46 in997.6 mb 0.00 in0.0 mm 0.00 in0.0 mm 0.00 in0.0 mm
03:20 AM 30.8°F-0.7°C 28.4°F-2.0°C 91% 2.0 mph WSW3.2 kmh WSW 4.0 mph6.4 kmh 29.45 in997.3 mb 0.00 in0.0 mm 0.00 in0.0 mm 0.00 in0.0 mm
03:25 AM 30.9°F-0.6°C 28.4°F-2.0°C 90% 1.0 mph W1.6 kmh W -- 29.46 in997.6 mb 0.00 in0.0 mm 0.00 in0.0 mm 0.00 in0.0 mm
03:30 AM 31.0°F-0.6°C 28.4°F-2.0°C 90% 3.0 mph WNW4.8 kmh WNW -- 29.45 in997.3 mb 0.00 in0.0 mm 0.00 in0.0 mm 0.00 in0.0 mm
03:35 AM 31.1°F-0.5°C 28.6°F-1.9°C 90% 2.0 mph NNW3.2 kmh NNW -- 29.45 in997.3 mb 0.00 in0.0 mm 0.00 in0.0 mm 0.00 in0.0 mm
03:40 AM 31.1°F-0.5°C 28.2°F-2.1°C 89% 1.0 mph WSW1.6 kmh WSW -- 29.45 in997.3 mb 0.00 in0.0 mm 0.00 in0.0 mm 0.00 in0.0 mm
03:45 AM 31.2°F-0.4°C 28.4°F-2.0°C 89% 2.0 mph NW3.2 kmh NW 4.0 mph6.4 kmh 29.45 in997.3 mb 0.00 in0.0 mm 0.00 in0.0 mm 0.00 in0.0 mm
03:50 AM 31.3°F-0.4°C 28.4°F-2.0°C 89% 2.0 mph NNE3.2 kmh NNE -- 29.45 in997.3 mb 0.00 in0.0 mm 0.00 in0.0 mm 0.00 in0.0 mm
03:55 AM 31.3°F-0.4°C 28.4°F-2.0°C 89% 5.0 mph N8.0 kmh N -- 29.46 in997.6 mb 0.00 in0.0 mm 0.00 in0.0 mm 0.00 in0.0 mm
04:00 AM 31.2°F-0.4°C 28.2°F-2.1°C 88% 3.0 mph NNE4.8 kmh NNE -- 29.46 in997.6 mb 0.00 in0.0 mm 0.00 in0.0 mm 0.00 in0.0 mm
04:05 AM 31.2°F-0.4°C 28.2°F-2.1°C 88% Calm Calm -- 29.46 in997.6 mb 0.00 in0.0 mm 0.00 in0.0 mm 0.00 in0.0 mm
04:10 AM 31.2°F-0.4°C 28.2°F-2.1°C 88% Calm Calm 7.0 mph11.3 kmh 29.46 in997.6 mb 0.00 in0.0 mm 0.00 in0.0 mm 0.00 in0.0 mm
04:15 AM 31.2°F-0.4°C 27.9°F-2.3°C 87% 1.0 mph W1.6 kmh W -- 29.46 in997.6 mb 0.00 in0.0 mm 0.00 in0.0 mm 0.00 in0.0 mm
04:20 AM 31.3°F-0.4°C 27.3°F-2.6°C 85% 2.0 mph N3.2 kmh N -- 29.45 in997.3 mb 0.00 in0.0 mm 0.00 in0.0 mm 0.00 in0.0 mm
04:25 AM 31.4°F-0.3°C 27.1°F-2.7°C 84% Calm Calm -- 29.46 in997.6 mb 0.00 in0.0 mm 0.00 in0.0 mm 0.00 in0.0 mm
04:30 AM 31.5°F-0.3°C 27.0°F-2.8°C 83% 1.0 mph NE1.6 kmh NE -- 29.46 in997.6 mb 0.00 in0.0 mm 0.00 in0.0 mm 0.00 in0.0 mm
04:35 AM 31.5°F-0.3°C 26.6°F-3.0°C 82% Calm Calm 7.0 mph11.3 kmh 29.46 in997.6 mb 0.00 in0.0 mm 0.00 in0.0 mm 0.00 in0.0 mm
04:40 AM 31.5°F-0.3°C 27.0°F-2.8°C 83% Calm Calm -- 29.45 in997.3 mb 0.00 in0.0 mm 0.00 in0.0 mm 0.00 in0.0 mm
04:45 AM 31.5°F-0.3°C 26.6°F-3.0°C 82% Calm Calm -- 29.45 in997.3 mb 0.00 in0.0 mm 0.00 in0.0 mm 0.00 in0.0 mm
04:50 AM 31.5°F-0.3°C 26.6°F-3.0°C 82% Calm Calm -- 29.45 in997.3 mb 0.00 in0.0 mm 0.00 in0.0 mm 0.00 in0.0 mm
04:55 AM 31.4°F-0.3°C 26.6°F-3.0°C 82% Calm Calm -- 29.45 in997.3 mb 0.00 in0.0 mm 0.00 in0.0 mm 0.00 in0.0 mm
05:00 AM 31.5°F-0.3°C 26.6°F-3.0°C 82% 3.0 mph W4.8 kmh W 6.0 mph9.7 kmh 29.46 in997.6 mb 0.00 in0.0 mm 0.00 in0.0 mm 0.00 in0.0 mm
05:05 AM 31.5°F-0.3°C 26.6°F-3.0°C 82% 5.0 mph NNW8.0 kmh NNW -- 29.46 in997.6 mb 0.00 in0.0 mm 0.00 in0.0 mm 0.00 in0.0 mm
05:10 AM 31.5°F-0.3°C 26.2°F-3.2°C 81% Calm Calm -- 29.46 in997.6 mb 0.00 in0.0 mm 0.00 in0.0 mm 0.00 in0.0 mm
05:15 AM 31.5°F-0.3°C 26.2°F-3.2°C 81% 2.0 mph N3.2 kmh N -- 29.45 in997.3 mb 0.00 in0.0 mm 0.00 in0.0 mm 0.00 in0.0 mm
05:20 AM 31.8°F-0.1°C 26.4°F-3.1°C 80% Calm Calm -- 29.45 in997.3 mb 0.00 in0.0 mm 0.00 in0.0 mm 0.00 in0.0 mm
05:25 AM 32.0°F0.0°C 26.2°F-3.2°C 79% 2.0 mph N3.2 kmh N 3.0 mph4.8 kmh 29.46 in997.6 mb 0.00 in0.0 mm 0.00 in0.0 mm 0.00 in0.0 mm
05:30 AM 32.3°F0.2°C 26.2°F-3.2°C 78% Calm Calm -- 29.45 in997.3 mb 0.00 in0.0 mm 0.00 in0.0 mm 0.00 in0.0 mm
05:35 AM 32.4°F0.2°C 25.3°F-3.7°C 75% 5.0 mph NNE8.0 kmh NNE -- 29.45 in997.3 mb 0.00 in0.0 mm 0.00 in0.0 mm 0.00 in0.0 mm
05:40 AM 32.4°F0.2°C 25.0°F-3.9°C 74% 3.0 mph NW4.8 kmh NW -- 29.45 in997.3 mb 0.00 in0.0 mm 0.00 in0.0 mm 0.00 in0.0 mm
05:45 AM 32.4°F0.2°C 25.0°F-3.9°C 74% 6.0 mph WSW9.7 kmh WSW -- 29.45 in997.3 mb 0.00 in0.0 mm 0.00 in0.0 mm 0.00 in0.0 mm
05:50 AM 32.4°F0.2°C 24.6°F-4.1°C 73% Calm Calm 7.0 mph11.3 kmh 29.45 in997.3 mb 0.00 in0.0 mm 0.00 in0.0 mm 0.00 in0.0 mm
05:55 AM 32.3°F0.2°C 24.4°F-4.2°C 72% 3.0 mph NE4.8 kmh NE -- 29.45 in997.3 mb 0.00 in0.0 mm 0.00 in0.0 mm 0.00 in0.0 mm
06:00 AM 31.8°F-0.1°C 25.2°F-3.8°C 76% 3.0 mph ENE4.8 kmh ENE -- 29.46 in997.6 mb 0.00 in0.0 mm 0.00 in0.0 mm 0.00 in0.0 mm
06:05 AM 31.2°F-0.4°C 25.5°F-3.6°C 79% 2.0 mph NE3.2 kmh NE -- 29.45 in997.3 mb 0.00 in0.0 mm 0.00 in0.0 mm 0.00 in0.0 mm
06:10 AM 31.4°F-0.3°C 26.2°F-3.2°C 81% Calm Calm -- 29.45 in997.3 mb 0.00 in0.0 mm 0.00 in0.0 mm 0.00 in0.0 mm
06:15 AM 32.2°F0.1°C 27.0°F-2.8°C 81% Calm Calm 4.0 mph6.4 kmh 29.45 in997.3 mb 0.00 in0.0 mm 0.00 in0.0 mm 0.00 in0.0 mm
06:20 AM 32.9°F0.5°C 26.8°F-2.9°C 78% 4.0 mph NE6.4 kmh NE -- 29.44 in997.0 mb 0.00 in0.0 mm 0.00 in0.0 mm 0.00 in0.0 mm
06:25 AM 33.3°F0.7°C 26.2°F-3.2°C 75% 5.0 mph NE8.0 kmh NE -- 29.44 in997.0 mb 0.00 in0.0 mm 0.00 in0.0 mm 0.00 in0.0 mm
06:30 AM 33.3°F0.7°C 25.5°F-3.6°C 73% 6.0 mph WNW9.7 kmh WNW -- 29.44 in997.0 mb 0.00 in0.0 mm 0.00 in0.0 mm 0.00 in0.0 mm
06:35 AM 32.8°F0.4°C 25.3°F-3.7°C 74% 2.0 mph N3.2 kmh N -- 29.45 in997.3 mb 0.00 in0.0 mm 0.00 in0.0 mm 0.00 in0.0 mm
06:40 AM 32.5°F0.3°C 24.8°F-4.0°C 73% 4.0 mph W6.4 kmh W 11.0 mph17.7 kmh 29.45 in997.3 mb 0.00 in0.0 mm 0.00 in0.0 mm 0.00 in0.0 mm
06:45 AM 32.3°F0.2°C 24.6°F-4.1°C 73% 4.0 mph NNW6.4 kmh NNW -- 29.45 in997.3 mb 0.00 in0.0 mm 0.00 in0.0 mm 0.00 in0.0 mm
06:50 AM 32.2°F0.1°C 23.9°F-4.5°C 71% Calm Calm -- 29.45 in997.3 mb 0.00 in0.0 mm 0.00 in0.0 mm 0.00 in0.0 mm
06:55 AM 32.2°F0.1°C 24.3°F-4.3°C 72% Calm Calm -- 29.45 in997.3 mb 0.00 in0.0 mm 0.00 in0.0 mm 0.00 in0.0 mm
07:00 AM 32.2°F0.1°C 23.9°F-4.5°C 71% 4.0 mph N6.4 kmh N -- 29.45 in997.3 mb 0.00 in0.0 mm 0.00 in0.0 mm 0.00 in0.0 mm
07:05 AM 31.8°F-0.1°C 24.4°F-4.2°C 74% 5.0 mph NE8.0 kmh NE 11.0 mph17.7 kmh 29.46 in997.6 mb 0.00 in0.0 mm 0.00 in0.0 mm 0.00 in0.0 mm
07:10 AM 30.6°F-0.8°C 25.5°F-3.6°C 81% 4.0 mph NW6.4 kmh NW -- 29.46 in997.6 mb 0.00 in0.0 mm 0.00 in0.0 mm 0.00 in0.0 mm
07:15 AM 30.2°F-1.0°C 25.9°F-3.4°C 84% Calm Calm -- 29.46 in997.6 mb 0.00 in0.0 mm 0.00 in0.0 mm 0.00 in0.0 mm
07:20 AM 30.3°F-0.9°C 26.4°F-3.1°C 85% 5.0 mph NW8.0 kmh NW -- 29.45 in997.3 mb 0.00 in0.0 mm 0.00 in0.0 mm 0.00 in0.0 mm
07:25 AM 30.5°F-0.8°C 26.6°F-3.0°C 85% 3.0 mph NNE4.8 kmh NNE -- 29.46 in997.6 mb 0.00 in0.0 mm 0.00 in0.0 mm 0.00 in0.0 mm
07:30 AM 30.6°F-0.8°C 26.2°F-3.2°C 84% 6.0 mph NE9.7 kmh NE 11.0 mph17.7 kmh 29.46 in997.6 mb 0.00 in0.0 mm 0.00 in0.0 mm 0.00 in0.0 mm
07:35 AM 30.6°F-0.8°C 26.1°F-3.3°C 83% 1.0 mph WSW1.6 kmh WSW -- 29.46 in997.6 mb 0.00 in0.0 mm 0.00 in0.0 mm 0.00 in0.0 mm
07:40 AM 30.8°F-0.7°C 26.2°F-3.2°C 83% 5.0 mph WNW8.0 kmh WNW -- 29.45 in997.3 mb 0.00 in0.0 mm 0.00 in0.0 mm 0.00 in0.0 mm
07:45 AM 31.1°F-0.5°C 26.2°F-3.2°C 82% 1.0 mph WSW1.6 kmh WSW -- 29.45 in997.3 mb 0.00 in0.0 mm 0.00 in0.0 mm 0.00 in0.0 mm
07:50 AM 31.4°F-0.3°C 26.2°F-3.2°C 81% 3.0 mph WSW4.8 kmh WSW -- 29.45 in997.3 mb 0.00 in0.0 mm 0.00 in0.0 mm 0.00 in0.0 mm
07:55 AM 31.7°F-0.2°C 26.2°F-3.2°C 80% Calm Calm 5.0 mph8.0 kmh 29.45 in997.3 mb 0.00 in0.0 mm 0.00 in0.0 mm 0.00 in0.0 mm
08:00 AM 32.1°F0.1°C 26.8°F-2.9°C 80% Calm Calm -- 29.45 in997.3 mb 0.00 in0.0 mm 0.00 in0.0 mm 0.00 in0.0 mm
08:05 AM 32.5°F0.3°C 27.1°F-2.7°C 80% 1.0 mph SSE1.6 kmh SSE -- 29.45 in997.3 mb 0.00 in0.0 mm 0.00 in0.0 mm 0.00 in0.0 mm
08:10 AM 32.3°F0.2°C 26.6°F-3.0°C 79% 3.0 mph ENE4.8 kmh ENE -- 29.45 in997.3 mb 0.00 in0.0 mm 0.00 in0.0 mm 0.00 in0.0 mm
08:15 AM 31.5°F-0.3°C 26.2°F-3.2°C 81% 5.0 mph NE8.0 kmh NE -- 29.46 in997.6 mb 0.00 in0.0 mm 0.00 in0.0 mm 0.00 in0.0 mm
08:20 AM 30.4°F-0.9°C 26.4°F-3.1°C 85% 4.0 mph NE6.4 kmh NE 11.0 mph17.7 kmh 29.46 in997.6 mb 0.00 in0.0 mm 0.00 in0.0 mm 0.00 in0.0 mm
08:25 AM 30.1°F-1.1°C 26.6°F-3.0°C 87% 3.0 mph NE4.8 kmh NE -- 29.46 in997.6 mb 0.00 in0.0 mm 0.00 in0.0 mm 0.00 in0.0 mm
08:30 AM 30.1°F-1.1°C 27.0°F-2.8°C 88% Calm Calm -- 29.46 in997.6 mb 0.00 in0.0 mm 0.00 in0.0 mm 0.00 in0.0 mm
08:35 AM 30.5°F-0.8°C 27.7°F-2.4°C 89% Calm Calm -- 29.45 in997.3 mb 0.00 in0.0 mm 0.00 in0.0 mm 0.00 in0.0 mm
08:40 AM 31.0°F-0.6°C 28.0°F-2.2°C 89% 1.0 mph S1.6 kmh S -- 29.45 in997.3 mb 0.00 in0.0 mm 0.00 in0.0 mm 0.00 in0.0 mm
08:45 AM 31.1°F-0.5°C 28.0°F-2.2°C 88% Calm Calm 4.0 mph6.4 kmh 29.45 in997.3 mb 0.00 in0.0 mm 0.00 in0.0 mm 0.00 in0.0 mm
08:50 AM 31.2°F-0.4°C 27.9°F-2.3°C 87% Calm Calm -- 29.45 in997.3 mb 0.01 in0.3 mm 0.12 in3.0 mm 0.01 in0.3 mm
08:55 AM 31.3°F-0.4°C 27.9°F-2.3°C 87% Calm Calm -- 29.45 in997.3 mb 0.01 in0.3 mm 0.00 in0.0 mm 0.01 in0.3 mm
09:00 AM 31.3°F-0.4°C 27.3°F-2.6°C 85% 5.0 mph WNW8.0 kmh WNW -- 29.46 in997.6 mb 0.01 in0.3 mm 0.00 in0.0 mm 0.01 in0.3 mm
09:05 AM 31.2°F-0.4°C 27.3°F-2.6°C 85% 4.0 mph NNE6.4 kmh NNE -- 29.46 in997.6 mb 0.01 in0.3 mm 0.00 in0.0 mm 0.01 in0.3 mm
09:10 AM 31.0°F-0.6°C 27.3°F-2.6°C 86% Calm Calm 8.0 mph12.9 kmh 29.46 in997.6 mb 0.01 in0.3 mm 0.00 in0.0 mm 0.01 in0.3 mm
09:15 AM 31.2°F-0.4°C 27.9°F-2.3°C 87% Calm Calm -- 29.46 in997.6 mb 0.01 in0.3 mm 0.00 in0.0 mm 0.01 in0.3 mm
09:20 AM 31.7°F-0.2°C 28.2°F-2.1°C 87% Calm Calm -- 29.46 in997.6 mb 0.01 in0.3 mm 0.00 in0.0 mm 0.01 in0.3 mm
09:25 AM 32.1°F0.1°C 28.8°F-1.8°C 87% 1.0 mph NNE1.6 kmh NNE -- 29.46 in997.6 mb 0.01 in0.3 mm 0.00 in0.0 mm 0.01 in0.3 mm
09:30 AM 32.2°F0.1°C 28.4°F-2.0°C 86% 1.0 mph N1.6 kmh N -- 29.46 in997.6 mb 0.01 in0.3 mm 0.00 in0.0 mm 0.01 in0.3 mm
09:35 AM 32.5°F0.3°C 28.0°F-2.2°C 83% 1.0 mph N1.6 kmh N 4.0 mph6.4 kmh 29.45 in997.3 mb 0.02 in0.5 mm 0.12 in3.0 mm 0.02 in0.5 mm
09:40 AM 32.9°F0.5°C 27.5°F-2.5°C 80% 2.0 mph NW3.2 kmh NW -- 29.46 in997.6 mb 0.02 in0.5 mm 0.00 in0.0 mm 0.02 in0.5 mm
09:45 AM 33.0°F0.6°C 26.1°F-3.3°C 75% 2.0 mph NW3.2 kmh NW -- 29.46 in997.6 mb 0.02 in0.5 mm 0.00 in0.0 mm 0.02 in0.5 mm
09:50 AM 33.3°F0.7°C 25.9°F-3.4°C 74% 1.0 mph NW1.6 kmh NW -- 29.46 in997.6 mb 0.01 in0.3 mm 0.00 in0.0 mm 0.02 in0.5 mm
09:55 AM 33.6°F0.9°C 25.9°F-3.4°C 73% 1.0 mph NNW1.6 kmh NNW -- 29.46 in997.6 mb 0.01 in0.3 mm 0.00 in0.0 mm 0.02 in0.5 mm
10:00 AM 33.6°F0.9°C 25.0°F-3.9°C 70% 2.0 mph NW3.2 kmh NW 8.0 mph12.9 kmh 29.46 in997.6 mb 0.01 in0.3 mm 0.00 in0.0 mm 0.02 in0.5 mm
10:05 AM 33.7°F0.9°C 24.6°F-4.1°C 69% 1.0 mph N1.6 kmh N -- 29.46 in997.6 mb 0.02 in0.5 mm 0.12 in3.0 mm 0.02 in0.5 mm
10:10 AM 33.7°F0.9°C 24.6°F-4.1°C 69% 5.0 mph N8.0 kmh N -- 29.46 in997.6 mb 0.02 in0.5 mm 0.00 in0.0 mm 0.02 in0.5 mm
10:15 AM 33.6°F0.9°C 23.9°F-4.5°C 67% 6.0 mph ENE9.7 kmh ENE -- 29.46 in997.6 mb 0.02 in0.5 mm 0.00 in0.0 mm 0.02 in0.5 mm
10:20 AM 33.3°F0.7°C 23.9°F-4.5°C 68% 5.0 mph NNE8.0 kmh NNE -- 29.46 in997.6 mb 0.02 in0.5 mm 0.00 in0.0 mm 0.02 in0.5 mm
10:25 AM 33.1°F0.6°C 24.1°F-4.4°C 69% Calm Calm 11.0 mph17.7 kmh 29.46 in997.6 mb 0.02 in0.5 mm 0.00 in0.0 mm 0.03 in0.8 mm
10:30 AM 33.2°F0.7°C 24.3°F-4.3°C 69% 2.0 mph NE3.2 kmh NE -- 29.46 in997.6 mb 0.02 in0.5 mm 0.00 in0.0 mm 0.03 in0.8 mm
10:35 AM 33.4°F0.8°C 24.1°F-4.4°C 68% 4.0 mph WNW6.4 kmh WNW -- 29.46 in997.6 mb 0.02 in0.5 mm 0.00 in0.0 mm 0.03 in0.8 mm
10:40 AM 33.5°F0.8°C 24.4°F-4.2°C 69% 6.0 mph SW9.7 kmh SW -- 29.46 in997.6 mb 0.02 in0.5 mm 0.00 in0.0 mm 0.03 in0.8 mm
10:45 AM 33.0°F0.6°C 25.0°F-3.9°C 72% 2.0 mph WSW3.2 kmh WSW -- 29.46 in997.6 mb 0.02 in0.5 mm 0.00 in0.0 mm 0.03 in0.8 mm
10:50 AM 33.0°F0.6°C 25.3°F-3.7°C 73% 2.0 mph NW3.2 kmh NW 12.0 mph19.3 kmh 29.46 in997.6 mb 0.02 in0.5 mm 0.00 in0.0 mm 0.03 in0.8 mm
10:55 AM 33.2°F0.7°C 25.2°F-3.8°C 72% 1.0 mph SSW1.6 kmh SSW -- 29.46 in997.6 mb 0.02 in0.5 mm 0.00 in0.0 mm 0.03 in0.8 mm
11:00 AM 33.8°F1.0°C 25.7°F-3.5°C 72% 1.0 mph WNW1.6 kmh WNW -- 29.45 in997.3 mb 0.02 in0.5 mm 0.00 in0.0 mm 0.04 in1.0 mm
11:05 AM 34.4°F1.3°C 25.9°F-3.4°C 71% 4.0 mph WNW6.4 kmh WNW -- 29.45 in997.3 mb 0.02 in0.5 mm 0.00 in0.0 mm 0.04 in1.0 mm
11:10 AM 34.4°F1.3°C 25.9°F-3.4°C 71% 5.0 mph SW8.0 kmh SW -- 29.45 in997.3 mb 0.02 in0.5 mm 0.00 in0.0 mm 0.04 in1.0 mm
11:15 AM 33.4°F0.8°C 25.7°F-3.5°C 73% 6.0 mph NNW9.7 kmh NNW 13.0 mph20.9 kmh 29.46 in997.6 mb 0.02 in0.5 mm 0.00 in0.0 mm 0.04 in1.0 mm
11:20 AM 33.1°F0.6°C 26.4°F-3.1°C 76% 6.0 mph WSW9.7 kmh WSW -- 29.45 in997.3 mb 0.02 in0.5 mm 0.00 in0.0 mm 0.04 in1.0 mm
11:25 AM 33.2°F0.7°C 26.8°F-2.9°C 77% 5.0 mph W8.0 kmh W -- 29.45 in997.3 mb 0.02 in0.5 mm 0.00 in0.0 mm 0.05 in1.3 mm
11:30 AM 33.4°F0.8°C 26.8°F-2.9°C 76% 5.0 mph W8.0 kmh W -- 29.45 in997.3 mb 0.02 in0.5 mm 0.00 in0.0 mm 0.05 in1.3 mm
11:35 AM 33.5°F0.8°C 26.8°F-2.9°C 76% Calm Calm -- 29.45 in997.3 mb 0.02 in0.5 mm 0.00 in0.0 mm 0.05 in1.3 mm
11:40 AM 34.1°F1.2°C 27.1°F-2.7°C 75% 6.0 mph NE9.7 kmh NE 9.0 mph14.5 kmh 29.45 in997.3 mb 0.02 in0.5 mm 0.00 in0.0 mm 0.05 in1.3 mm
11:45 AM 34.5°F1.4°C 27.1°F-2.7°C 74% 6.0 mph NNE9.7 kmh NNE -- 29.45 in997.3 mb 0.02 in0.5 mm 0.00 in0.0 mm 0.05 in1.3 mm
11:50 AM 34.0°F1.1°C 26.2°F-3.2°C 73% Calm Calm -- 29.46 in997.6 mb 0.02 in0.5 mm 0.00 in0.0 mm 0.05 in1.3 mm
11:55 AM 33.0°F0.6°C 26.4°F-3.1°C 76% 5.0 mph NE8.0 kmh NE -- 29.47 in998.0 mb 0.02 in0.5 mm 0.00 in0.0 mm 0.05 in1.3 mm
12:00 PM 31.8°F-0.1°C 26.6°F-3.0°C 81% 4.0 mph ENE6.4 kmh ENE -- 29.47 in998.0 mb 0.01 in0.3 mm 0.00 in0.0 mm 0.05 in1.3 mm
12:05 PM 31.7°F-0.2°C 27.3°F-2.6°C 84% 7.0 mph NE11.3 kmh NE 11.0 mph17.7 kmh 29.47 in998.0 mb 0.01 in0.3 mm 0.00 in0.0 mm 0.05 in1.3 mm
12:10 PM 31.1°F-0.5°C 27.1°F-2.7°C 85% 3.0 mph ENE4.8 kmh ENE -- 29.47 in998.0 mb 0.01 in0.3 mm 0.00 in0.0 mm 0.05 in1.3 mm
12:15 PM 31.0°F-0.6°C 27.3°F-2.6°C 86% 5.0 mph NE8.0 kmh NE -- 29.47 in998.0 mb 0.02 in0.5 mm 0.12 in3.0 mm 0.06 in1.5 mm
12:20 PM 31.0°F-0.6°C 27.5°F-2.5°C 87% 1.0 mph NW1.6 kmh NW -- 29.47 in998.0 mb 0.02 in0.5 mm 0.00 in0.0 mm 0.06 in1.5 mm
12:25 PM 31.5°F-0.3°C 28.4°F-2.0°C 88% 2.0 mph E3.2 kmh E -- 29.47 in998.0 mb 0.01 in0.3 mm 0.00 in0.0 mm 0.06 in1.5 mm
12:30 PM 31.4°F-0.3°C 28.0°F-2.2°C 87% 1.0 mph ESE1.6 kmh ESE 4.0 mph6.4 kmh 29.47 in998.0 mb 0.01 in0.3 mm 0.00 in0.0 mm 0.06 in1.5 mm
12:35 PM 31.4°F-0.3°C 28.0°F-2.2°C 87% Calm Calm -- 29.47 in998.0 mb 0.01 in0.3 mm 0.00 in0.0 mm 0.06 in1.5 mm
12:40 PM 31.7°F-0.2°C 28.2°F-2.1°C 87% Calm Calm -- 29.47 in998.0 mb 0.01 in0.3 mm 0.00 in0.0 mm 0.06 in1.5 mm
12:45 PM 31.9°F-0.1°C 28.0°F-2.2°C 86% 1.0 mph SE1.6 kmh SE -- 29.47 in998.0 mb 0.02 in0.5 mm 0.12 in3.0 mm 0.06 in1.5 mm
12:50 PM 31.9°F-0.1°C 27.5°F-2.5°C 84% 5.0 mph E8.0 kmh E -- 29.47 in998.0 mb 0.02 in0.5 mm 0.00 in0.0 mm 0.06 in1.5 mm
12:55 PM 31.8°F-0.1°C 27.9°F-2.3°C 85% 5.0 mph NE8.0 kmh NE 7.0 mph11.3 kmh 29.48 in998.3 mb 0.02 in0.5 mm 0.00 in0.0 mm 0.06 in1.5 mm
01:00 PM 31.3°F-0.4°C 27.9°F-2.3°C 87% 9.0 mph NE14.5 kmh NE -- 29.48 in998.3 mb 0.02 in0.5 mm 0.00 in0.0 mm 0.06 in1.5 mm
01:05 PM 30.9°F-0.6°C 27.9°F-2.3°C 88% 3.0 mph NE4.8 kmh NE -- 29.48 in998.3 mb 0.02 in0.5 mm 0.00 in0.0 mm 0.06 in1.5 mm
01:10 PM 31.0°F-0.6°C 28.0°F-2.2°C 89% 5.0 mph NE8.0 kmh NE -- 29.48 in998.3 mb 0.02 in0.5 mm 0.00 in0.0 mm 0.06 in1.5 mm
01:15 PM 31.4°F-0.3°C 28.9°F-1.7°C 90% 4.0 mph W6.4 kmh W -- 29.48 in998.3 mb 0.01 in0.3 mm 0.00 in0.0 mm 0.06 in1.5 mm
01:20 PM 31.8°F-0.1°C 28.8°F-1.8°C 88% 4.0 mph NW6.4 kmh NW 6.0 mph9.7 kmh 29.48 in998.3 mb 0.01 in0.3 mm 0.00 in0.0 mm 0.06 in1.5 mm
01:25 PM 32.0°F0.0°C 28.6°F-1.9°C 87% 1.0 mph NE1.6 kmh NE -- 29.48 in998.3 mb 0.01 in0.3 mm 0.00 in0.0 mm 0.06 in1.5 mm
01:30 PM 32.3°F0.2°C 28.6°F-1.9°C 86% 4.0 mph WSW6.4 kmh WSW -- 29.48 in998.3 mb 0.01 in0.3 mm 0.00 in0.0 mm 0.06 in1.5 mm
01:35 PM 32.5°F0.3°C 28.0°F-2.2°C 83% 5.0 mph WSW8.0 kmh WSW -- 29.48 in998.3 mb 0.01 in0.3 mm 0.00 in0.0 mm 0.06 in1.5 mm
01:40 PM 32.9°F0.5°C 28.0°F-2.2°C 82% 6.0 mph NW9.7 kmh NW -- 29.48 in998.3 mb 0.01 in0.3 mm 0.00 in0.0 mm 0.06 in1.5 mm
01:45 PM 33.2°F0.7°C 27.5°F-2.5°C 79% 5.0 mph W8.0 kmh W 7.0 mph11.3 kmh 29.48 in998.3 mb 0.01 in0.3 mm 0.00 in0.0 mm 0.07 in1.8 mm
01:50 PM 33.7°F0.9°C 27.5°F-2.5°C 78% 3.0 mph NW4.8 kmh NW -- 29.48 in998.3 mb 0.01 in0.3 mm 0.00 in0.0 mm 0.07 in1.8 mm
01:55 PM 34.0°F1.1°C 27.0°F-2.8°C 75% 1.0 mph NW1.6 kmh NW -- 29.48 in998.3 mb 0.01 in0.3 mm 0.00 in0.0 mm 0.07 in1.8 mm
02:00 PM 34.3°F1.3°C 27.0°F-2.8°C 74% 1.0 mph W1.6 kmh W -- 29.48 in998.3 mb 0.01 in0.3 mm 0.00 in0.0 mm 0.07 in1.8 mm
02:05 PM 34.6°F1.4°C 26.8°F-2.9°C 73% 1.0 mph W1.6 kmh W -- 29.48 in998.3 mb 0.02 in0.5 mm 0.12 in3.0 mm 0.08 in2.0 mm
02:10 PM 34.5°F1.4°C 26.4°F-3.1°C 72% Calm Calm 7.0 mph11.3 kmh 29.48 in998.3 mb 0.02 in0.5 mm 0.00 in0.0 mm 0.08 in2.0 mm
02:15 PM 34.8°F1.6°C 26.4°F-3.1°C 71% 1.0 mph WSW1.6 kmh WSW -- 29.48 in998.3 mb 0.02 in0.5 mm 0.00 in0.0 mm 0.08 in2.0 mm
02:20 PM 34.7°F1.5°C 26.6°F-3.0°C 72% 5.0 mph ENE8.0 kmh ENE -- 29.48 in998.3 mb 0.02 in0.5 mm 0.00 in0.0 mm 0.09 in2.3 mm
02:25 PM 33.8°F1.0°C 28.0°F-2.2°C 79% 6.0 mph NE9.7 kmh NE -- 29.49 in998.6 mb 0.02 in0.5 mm 0.00 in0.0 mm 0.09 in2.3 mm
02:30 PM 32.8°F0.4°C 28.4°F-2.0°C 84% 11.0 mph ENE17.7 kmh ENE -- 29.49 in998.6 mb 0.02 in0.5 mm 0.00 in0.0 mm 0.09 in2.3 mm
02:35 PM 32.2°F0.1°C 28.4°F-2.0°C 86% 3.0 mph NE4.8 kmh NE 13.0 mph20.9 kmh 29.49 in998.6 mb 0.03 in0.8 mm 0.12 in3.0 mm 0.09 in2.3 mm
02:40 PM 31.9°F-0.1°C 28.4°F-2.0°C 87% 5.0 mph NE8.0 kmh NE -- 29.49 in998.6 mb 0.03 in0.8 mm 0.00 in0.0 mm 0.09 in2.3 mm
02:45 PM 31.5°F-0.3°C 28.0°F-2.2°C 87% 7.0 mph NNE11.3 kmh NNE -- 29.49 in998.6 mb 0.02 in0.5 mm 0.00 in0.0 mm 0.09 in2.3 mm
02:50 PM 31.2°F-0.4°C 28.2°F-2.1°C 88% 3.0 mph NE4.8 kmh NE -- 29.49 in998.6 mb 0.02 in0.5 mm 0.00 in0.0 mm 0.09 in2.3 mm
02:55 PM 31.1°F-0.5°C 28.2°F-2.1°C 89% 4.0 mph NE6.4 kmh NE -- 29.49 in998.6 mb 0.02 in0.5 mm 0.00 in0.0 mm 0.09 in2.3 mm
03:00 PM 31.0°F-0.6°C 28.4°F-2.0°C 90% 1.0 mph NE1.6 kmh NE 5.0 mph8.0 kmh 29.49 in998.6 mb 0.02 in0.5 mm 0.00 in0.0 mm 0.09 in2.3 mm
03:05 PM 31.0°F-0.6°C 28.4°F-2.0°C 90% Calm Calm -- 29.49 in998.6 mb 0.02 in0.5 mm 0.00 in0.0 mm 0.09 in2.3 mm
03:10 PM 31.1°F-0.5°C 28.6°F-1.9°C 90% 5.0 mph W8.0 kmh W -- 29.49 in998.6 mb 0.02 in0.5 mm 0.00 in0.0 mm 0.09 in2.3 mm
03:15 PM 31.0°F-0.6°C 28.4°F-2.0°C 90% 3.0 mph W4.8 kmh W -- 29.49 in998.6 mb 0.02 in0.5 mm 0.00 in0.0 mm 0.09 in2.3 mm
03:20 PM 31.2°F-0.4°C 28.4°F-2.0°C 89% 1.0 mph W1.6 kmh W -- 29.49 in998.6 mb 0.01 in0.3 mm 0.00 in0.0 mm 0.09 in2.3 mm
03:25 PM 31.5°F-0.3°C 28.6°F-1.9°C 89% 3.0 mph W4.8 kmh W 8.0 mph12.9 kmh 29.49 in998.6 mb 0.01 in0.3 mm 0.00 in0.0 mm 0.09 in2.3 mm
03:30 PM 31.5°F-0.3°C 28.6°F-1.9°C 89% 4.0 mph WSW6.4 kmh WSW -- 29.49 in998.6 mb 0.01 in0.3 mm 0.00 in0.0 mm 0.09 in2.3 mm
03:35 PM 31.8°F-0.1°C 28.9°F-1.7°C 89% 3.0 mph WSW4.8 kmh WSW -- 29.49 in998.6 mb 0.01 in0.3 mm 0.00 in0.0 mm 0.10 in2.5 mm
03:40 PM 32.2°F0.1°C 29.1°F-1.6°C 88% 3.0 mph WSW4.8 kmh WSW -- 29.49 in998.6 mb 0.01 in0.3 mm 0.00 in0.0 mm 0.10 in2.5 mm
03:45 PM 32.8°F0.4°C 29.5°F-1.4°C 88% 6.0 mph WSW9.7 kmh WSW -- 29.49 in998.6 mb 0.01 in0.3 mm 0.00 in0.0 mm 0.10 in2.5 mm
03:50 PM 33.1°F0.6°C 29.1°F-1.6°C 85% 2.0 mph SW3.2 kmh SW 8.0 mph12.9 kmh 29.49 in998.6 mb 0.01 in0.3 mm 0.00 in0.0 mm 0.10 in2.5 mm
03:55 PM 33.5°F0.8°C 28.6°F-1.9°C 82% 4.0 mph NW6.4 kmh NW -- 29.49 in998.6 mb 0.01 in0.3 mm 0.00 in0.0 mm 0.10 in2.5 mm
04:00 PM 33.6°F0.9°C 28.0°F-2.2°C 80% 5.0 mph W8.0 kmh W -- 29.49 in998.6 mb 0.02 in0.5 mm 0.01 in0.3 mm 0.11 in2.8 mm
04:05 PM 34.0°F1.1°C 28.4°F-2.0°C 80% 2.0 mph NW3.2 kmh NW -- 29.49 in998.6 mb 0.02 in0.5 mm 0.00 in0.0 mm 0.11 in2.8 mm
04:10 PM 34.0°F1.1°C 28.2°F-2.1°C 79% 2.0 mph SSW3.2 kmh SSW -- 29.49 in998.6 mb 0.02 in0.5 mm 0.00 in0.0 mm 0.11 in2.8 mm
04:15 PM 34.2°F1.2°C 28.0°F-2.2°C 78% Calm Calm 8.0 mph12.9 kmh 29.49 in998.6 mb 0.02 in0.5 mm 0.00 in0.0 mm 0.11 in2.8 mm
04:20 PM 34.1°F1.2°C 27.7°F-2.4°C 77% 6.0 mph WSW9.7 kmh WSW -- 29.50 in999.0 mb 0.02 in0.5 mm 0.00 in0.0 mm 0.11 in2.8 mm
04:25 PM 33.8°F1.0°C 27.1°F-2.7°C 76% 2.0 mph W3.2 kmh W -- 29.50 in999.0 mb 0.02 in0.5 mm 0.00 in0.0 mm 0.11 in2.8 mm
04:30 PM 33.9°F1.1°C 27.1°F-2.7°C 76% 5.0 mph WSW8.0 kmh WSW -- 29.50 in999.0 mb 0.02 in0.5 mm 0.00 in0.0 mm 0.11 in2.8 mm
04:35 PM 33.9°F1.1°C 27.0°F-2.8°C 75% 5.0 mph WSW8.0 kmh WSW -- 29.50 in999.0 mb 0.01 in0.3 mm 0.00 in0.0 mm 0.11 in2.8 mm
04:40 PM 34.0°F1.1°C 27.1°F-2.7°C 76% 4.0 mph SW6.4 kmh SW 8.0 mph12.9 kmh 29.50 in999.0 mb 0.01 in0.3 mm 0.00 in0.0 mm 0.11 in2.8 mm
04:45 PM 34.3°F1.3°C 27.5°F-2.5°C 76% 3.0 mph W4.8 kmh W -- 29.50 in999.0 mb 0.01 in0.3 mm 0.00 in0.0 mm 0.11 in2.8 mm
04:50 PM 34.1°F1.2°C 27.3°F-2.6°C 76% 2.0 mph WNW3.2 kmh WNW -- 29.50 in999.0 mb 0.02 in0.5 mm 0.12 in3.0 mm 0.12 in3.0 mm
04:55 PM 33.4°F0.8°C 26.8°F-2.9°C 76% 3.0 mph SW4.8 kmh SW -- 29.50 in999.0 mb 0.02 in0.5 mm 0.00 in0.0 mm 0.12 in3.0 mm
05:00 PM 32.7°F0.4°C 26.6°F-3.0°C 78% 6.0 mph WSW9.7 kmh WSW -- 29.50 in999.0 mb 0.01 in0.3 mm 0.00 in0.0 mm 0.12 in3.0 mm
05:05 PM 32.5°F0.3°C 26.8°F-2.9°C 79% 4.0 mph WSW6.4 kmh WSW 10.0 mph16.1 kmh 29.50 in999.0 mb 0.01 in0.3 mm 0.00 in0.0 mm 0.12 in3.0 mm
05:10 PM 32.7°F0.4°C 27.0°F-2.8°C 79% 4.0 mph WSW6.4 kmh WSW -- 29.50 in999.0 mb 0.01 in0.3 mm 0.00 in0.0 mm 0.12 in3.0 mm
05:15 PM 33.0°F0.6°C 27.3°F-2.6°C 79% 3.0 mph SW4.8 kmh SW -- 29.50 in999.0 mb 0.01 in0.3 mm 0.00 in0.0 mm 0.12 in3.0 mm
05:20 PM 33.5°F0.8°C 27.3°F-2.6°C 78% 6.0 mph W9.7 kmh W -- 29.50 in999.0 mb 0.01 in0.3 mm 0.00 in0.0 mm 0.12 in3.0 mm
05:25 PM 33.9°F1.1°C 27.0°F-2.8°C 75% 4.0 mph W6.4 kmh W -- 29.50 in999.0 mb 0.01 in0.3 mm 0.00 in0.0 mm 0.12 in3.0 mm
05:30 PM 34.0°F1.1°C 26.6°F-3.0°C 74% 6.0 mph WSW9.7 kmh WSW 8.0 mph12.9 kmh 29.50 in999.0 mb 0.01 in0.3 mm 0.00 in0.0 mm 0.12 in3.0 mm
05:35 PM 33.9°F1.1°C 26.6°F-3.0°C 74% 1.0 mph NW1.6 kmh NW -- 29.50 in999.0 mb 0.01 in0.3 mm 0.00 in0.0 mm 0.12 in3.0 mm
05:40 PM 34.1°F1.2°C 26.4°F-3.1°C 73% 1.0 mph W1.6 kmh W -- 29.50 in999.0 mb 0.01 in0.3 mm 0.00 in0.0 mm 0.12 in3.0 mm
05:45 PM 34.2°F1.2°C 26.4°F-3.1°C 73% 4.0 mph SW6.4 kmh SW -- 29.50 in999.0 mb 0.01 in0.3 mm 0.00 in0.0 mm 0.12 in3.0 mm
05:50 PM 34.3°F1.3°C 27.0°F-2.8°C 74% 2.0 mph WSW3.2 kmh WSW -- 29.50 in999.0 mb 0.00 in0.0 mm 0.00 in0.0 mm 0.12 in3.0 mm
05:55 PM 34.7°F1.5°C 27.3°F-2.6°C 74% 1.0 mph WSW1.6 kmh WSW 5.0 mph8.0 kmh 29.50 in999.0 mb 0.00 in0.0 mm 0.00 in0.0 mm 0.12 in3.0 mm
06:00 PM 35.0°F1.7°C 27.3°F-2.6°C 73% 1.0 mph SW1.6 kmh SW -- 29.50 in999.0 mb 0.00 in0.0 mm 0.00 in0.0 mm 0.12 in3.0 mm
06:05 PM 34.7°F1.5°C 27.0°F-2.8°C 73% 1.0 mph W1.6 kmh W -- 29.50 in999.0 mb 0.00 in0.0 mm 0.00 in0.0 mm 0.12 in3.0 mm
06:10 PM 34.6°F1.4°C 26.8°F-2.9°C 73% 3.0 mph WNW4.8 kmh WNW -- 29.50 in999.0 mb 0.00 in0.0 mm 0.00 in0.0 mm 0.12 in3.0 mm
06:15 PM 34.2°F1.2°C 26.8°F-2.9°C 74% 3.0 mph WNW4.8 kmh WNW -- 29.50 in999.0 mb 0.00 in0.0 mm 0.00 in0.0 mm 0.12 in3.0 mm
06:20 PM 33.9°F1.1°C 26.6°F-3.0°C 74% 1.0 mph WSW1.6 kmh WSW 5.0 mph8.0 kmh 29.51 in999.3 mb 0.00 in0.0 mm 0.00 in0.0 mm 0.12 in3.0 mm
06:25 PM 33.7°F0.9°C 26.6°F-3.0°C 75% 2.0 mph WSW3.2 kmh WSW -- 29.51 in999.3 mb 0.00 in0.0 mm 0.00 in0.0 mm 0.12 in3.0 mm
06:30 PM 33.7°F0.9°C 26.6°F-3.0°C 75% 2.0 mph NNW3.2 kmh NNW -- 29.51 in999.3 mb 0.00 in0.0 mm 0.00 in0.0 mm 0.12 in3.0 mm
06:35 PM 33.6°F0.9°C 26.6°F-3.0°C 75% 4.0 mph NW6.4 kmh NW -- 29.51 in999.3 mb 0.00 in0.0 mm 0.00 in0.0 mm 0.12 in3.0 mm
06:40 PM 33.6°F0.9°C 26.6°F-3.0°C 75% Calm Calm -- 29.51 in999.3 mb 0.00 in0.0 mm 0.00 in0.0 mm 0.12 in3.0 mm
06:45 PM 33.6°F0.9°C 26.6°F-3.0°C 75% 2.0 mph NW3.2 kmh NW 5.0 mph8.0 kmh 29.51 in999.3 mb 0.00 in0.0 mm 0.00 in0.0 mm 0.12 in3.0 mm
06:50 PM 33.5°F0.8°C 26.4°F-3.1°C 75% 1.0 mph WNW1.6 kmh WNW -- 29.51 in999.3 mb 0.00 in0.0 mm 0.00 in0.0 mm 0.12 in3.0 mm
06:55 PM 33.5°F0.8°C 26.4°F-3.1°C 75% Calm Calm -- 29.51 in999.3 mb 0.00 in0.0 mm 0.00 in0.0 mm 0.12 in3.0 mm
07:00 PM 33.4°F0.8°C 26.4°F-3.1°C 75% Calm Calm -- 29.51 in999.3 mb 0.00 in0.0 mm 0.00 in0.0 mm 0.12 in3.0 mm
07:05 PM 33.4°F0.8°C 26.8°F-2.9°C 76% 1.0 mph WNW1.6 kmh WNW -- 29.51 in999.3 mb 0.00 in0.0 mm 0.00 in0.0 mm 0.12 in3.0 mm
07:10 PM 33.2°F0.7°C 26.6°F-3.0°C 76% Calm Calm 2.0 mph3.2 kmh 29.51 in999.3 mb 0.00 in0.0 mm 0.00 in0.0 mm 0.12 in3.0 mm
07:15 PM 33.0°F0.6°C 26.4°F-3.1°C 76% 3.0 mph W4.8 kmh W -- 29.52 in999.7 mb 0.00 in0.0 mm 0.00 in0.0 mm 0.12 in3.0 mm
07:20 PM 32.7°F0.4°C 26.1°F-3.3°C 76% 2.0 mph SW3.2 kmh SW -- 29.52 in999.7 mb 0.00 in0.0 mm 0.00 in0.0 mm 0.12 in3.0 mm
07:25 PM 32.5°F0.3°C 26.1°F-3.3°C 77% 2.0 mph SW3.2 kmh SW -- 29.52 in999.7 mb 0.00 in0.0 mm 0.00 in0.0 mm 0.12 in3.0 mm
07:30 PM 32.5°F0.3°C 26.1°F-3.3°C 77% 6.0 mph WNW9.7 kmh WNW -- 29.52 in999.7 mb 0.00 in0.0 mm 0.00 in0.0 mm 0.12 in3.0 mm
07:35 PM 32.4°F0.2°C 26.2°F-3.2°C 78% 6.0 mph WSW9.7 kmh WSW 12.0 mph19.3 kmh 29.52 in999.7 mb 0.00 in0.0 mm 0.00 in0.0 mm 0.12 in3.0 mm
07:40 PM 32.0°F0.0°C 26.6°F-3.0°C 80% 2.0 mph WSW3.2 kmh WSW -- 29.52 in999.7 mb 0.00 in0.0 mm 0.00 in0.0 mm 0.12 in3.0 mm
07:45 PM 31.8°F-0.1°C 26.4°F-3.1°C 80% 2.0 mph SW3.2 kmh SW -- 29.52 in999.7 mb 0.00 in0.0 mm 0.00 in0.0 mm 0.12 in3.0 mm
07:50 PM 31.7°F-0.2°C 26.4°F-3.1°C 81% 2.0 mph SW3.2 kmh SW -- 29.52 in999.7 mb 0.00 in0.0 mm 0.00 in0.0 mm 0.12 in3.0 mm
07:55 PM 31.6°F-0.2°C 26.4°F-3.1°C 81% 4.0 mph W6.4 kmh W -- 29.52 in999.7 mb 0.00 in0.0 mm 0.00 in0.0 mm 0.12 in3.0 mm
08:00 PM 32.0°F0.0°C 26.8°F-2.9°C 81% 8.0 mph WSW12.9 kmh WSW 9.0 mph14.5 kmh 29.52 in999.7 mb 0.00 in0.0 mm 0.00 in0.0 mm 0.12 in3.0 mm
08:05 PM 32.2°F0.1°C 26.4°F-3.1°C 79% 5.0 mph WSW8.0 kmh WSW -- 29.52 in999.7 mb 0.00 in0.0 mm 0.00 in0.0 mm 0.12 in3.0 mm
08:10 PM 32.2°F0.1°C 26.4°F-3.1°C 79% 4.0 mph W6.4 kmh W -- 29.52 in999.7 mb 0.01 in0.3 mm 0.12 in3.0 mm 0.13 in3.3 mm
08:15 PM 32.1°F0.1°C 26.4°F-3.1°C 79% 3.0 mph WSW4.8 kmh WSW -- 29.52 in999.7 mb 0.01 in0.3 mm 0.00 in0.0 mm 0.13 in3.3 mm
08:20 PM 31.7°F-0.2°C 25.9°F-3.4°C 79% 2.0 mph SW3.2 kmh SW -- 29.52 in999.7 mb 0.01 in0.3 mm 0.00 in0.0 mm 0.13 in3.3 mm
08:25 PM 31.3°F-0.4°C 25.5°F-3.6°C 79% 4.0 mph SW6.4 kmh SW 5.0 mph8.0 kmh 29.52 in999.7 mb 0.01 in0.3 mm 0.00 in0.0 mm 0.13 in3.3 mm
08:30 PM 31.2°F-0.4°C 25.5°F-3.6°C 79% 4.0 mph SW6.4 kmh SW -- 29.52 in999.7 mb 0.01 in0.3 mm 0.00 in0.0 mm 0.13 in3.3 mm
08:35 PM 30.9°F-0.6°C 25.2°F-3.8°C 79% 2.0 mph SW3.2 kmh SW -- 29.52 in999.7 mb 0.01 in0.3 mm 0.00 in0.0 mm 0.13 in3.3 mm
08:40 PM 30.7°F-0.7°C 25.0°F-3.9°C 79% 6.0 mph WSW9.7 kmh WSW -- 29.52 in999.7 mb 0.01 in0.3 mm 0.00 in0.0 mm 0.13 in3.3 mm
08:45 PM 30.5°F-0.8°C 25.2°F-3.8°C 80% 5.0 mph WSW8.0 kmh WSW -- 29.52 in999.7 mb 0.01 in0.3 mm 0.00 in0.0 mm 0.13 in3.3 mm
08:50 PM 30.4°F-0.9°C 25.3°F-3.7°C 81% 5.0 mph WSW8.0 kmh WSW 8.0 mph12.9 kmh 29.52 in999.7 mb 0.01 in0.3 mm 0.00 in0.0 mm 0.13 in3.3 mm
08:55 PM 30.2°F-1.0°C 25.2°F-3.8°C 81% 6.0 mph WSW9.7 kmh WSW -- 29.52 in999.7 mb 0.01 in0.3 mm 0.00 in0.0 mm 0.13 in3.3 mm
09:00 PM 30.2°F-1.0°C 25.2°F-3.8°C 81% 5.0 mph W8.0 kmh W -- 29.52 in999.7 mb 0.01 in0.3 mm 0.00 in0.0 mm 0.13 in3.3 mm
09:05 PM 30.0°F-1.1°C 25.0°F-3.9°C 81% 4.0 mph W6.4 kmh W -- 29.52 in999.7 mb 0.01 in0.3 mm 0.00 in0.0 mm 0.13 in3.3 mm
09:10 PM 29.7°F-1.3°C 24.8°F-4.0°C 82% 5.0 mph WSW8.0 kmh WSW -- 29.52 in999.7 mb 0.00 in0.0 mm 0.00 in0.0 mm 0.13 in3.3 mm
09:15 PM 29.6°F-1.3°C 25.2°F-3.8°C 83% 5.0 mph WSW8.0 kmh WSW 8.0 mph12.9 kmh 29.53 in1000.0 mb 0.00 in0.0 mm 0.00 in0.0 mm 0.13 in3.3 mm
09:20 PM 29.8°F-1.2°C 25.3°F-3.7°C 83% 4.0 mph WSW6.4 kmh WSW -- 29.52 in999.7 mb 0.00 in0.0 mm 0.00 in0.0 mm 0.13 in3.3 mm
09:25 PM 29.6°F-1.3°C 25.2°F-3.8°C 83% 9.0 mph WSW14.5 kmh WSW -- 29.53 in1000.0 mb 0.00 in0.0 mm 0.00 in0.0 mm 0.13 in3.3 mm
09:30 PM 29.8°F-1.2°C 25.3°F-3.7°C 83% 6.0 mph WSW9.7 kmh WSW -- 29.53 in1000.0 mb 0.00 in0.0 mm 0.00 in0.0 mm 0.13 in3.3 mm
09:35 PM 29.7°F-1.3°C 25.2°F-3.8°C 83% 5.0 mph W8.0 kmh W -- 29.53 in1000.0 mb 0.00 in0.0 mm 0.00 in0.0 mm 0.13 in3.3 mm
09:40 PM 29.7°F-1.3°C 25.2°F-3.8°C 83% 6.0 mph SW9.7 kmh SW 10.0 mph16.1 kmh 29.53 in1000.0 mb 0.00 in0.0 mm 0.00 in0.0 mm 0.13 in3.3 mm
09:45 PM 29.9°F-1.2°C 25.3°F-3.7°C 83% 3.0 mph SSW4.8 kmh SSW -- 29.53 in1000.0 mb 0.00 in0.0 mm 0.00 in0.0 mm 0.13 in3.3 mm
09:50 PM 29.9°F-1.2°C 25.3°F-3.7°C 83% 4.0 mph SW6.4 kmh SW -- 29.53 in1000.0 mb 0.00 in0.0 mm 0.00 in0.0 mm 0.13 in3.3 mm
09:55 PM 30.0°F-1.1°C 25.5°F-3.6°C 83% 2.0 mph SW3.2 kmh SW -- 29.53 in1000.0 mb 0.00 in0.0 mm 0.00 in0.0 mm 0.13 in3.3 mm
10:00 PM 30.1°F-1.1°C 25.7°F-3.5°C 84% 2.0 mph WSW3.2 kmh WSW -- 29.53 in1000.0 mb 0.00 in0.0 mm 0.00 in0.0 mm 0.13 in3.3 mm
10:05 PM 29.8°F-1.2°C 25.5°F-3.6°C 84% 4.0 mph WSW6.4 kmh WSW 6.0 mph9.7 kmh 29.53 in1000.0 mb 0.00 in0.0 mm 0.00 in0.0 mm 0.13 in3.3 mm
10:10 PM 29.7°F-1.3°C 25.3°F-3.7°C 84% 3.0 mph W4.8 kmh W -- 29.53 in1000.0 mb 0.00 in0.0 mm 0.00 in0.0 mm 0.13 in3.3 mm
10:15 PM 29.6°F-1.3°C 25.3°F-3.7°C 84% 4.0 mph WSW6.4 kmh WSW -- 29.53 in1000.0 mb 0.00 in0.0 mm 0.00 in0.0 mm 0.13 in3.3 mm
10:20 PM 29.7°F-1.3°C 25.7°F-3.5°C 85% 3.0 mph WSW4.8 kmh WSW -- 29.53 in1000.0 mb 0.00 in0.0 mm 0.00 in0.0 mm 0.13 in3.3 mm
10:25 PM 29.8°F-1.2°C 25.9°F-3.4°C 85% 7.0 mph WSW11.3 kmh WSW -- 29.53 in1000.0 mb 0.00 in0.0 mm 0.00 in0.0 mm 0.13 in3.3 mm
10:30 PM 29.8°F-1.2°C 25.5°F-3.6°C 84% 7.0 mph W11.3 kmh W 12.0 mph19.3 kmh 29.53 in1000.0 mb 0.00 in0.0 mm 0.00 in0.0 mm 0.13 in3.3 mm
10:35 PM 29.5°F-1.4°C 25.3°F-3.7°C 84% 6.0 mph WSW9.7 kmh WSW -- 29.53 in1000.0 mb 0.00 in0.0 mm 0.00 in0.0 mm 0.13 in3.3 mm
10:40 PM 29.2°F-1.6°C 25.2°F-3.8°C 85% 5.0 mph W8.0 kmh W -- 29.54 in1000.3 mb 0.00 in0.0 mm 0.00 in0.0 mm 0.13 in3.3 mm
10:45 PM 29.2°F-1.6°C 25.2°F-3.8°C 85% 5.0 mph WSW8.0 kmh WSW -- 29.54 in1000.3 mb 0.00 in0.0 mm 0.00 in0.0 mm 0.13 in3.3 mm
10:50 PM 29.0°F-1.7°C 25.0°F-3.9°C 85% 5.0 mph W8.0 kmh W -- 29.54 in1000.3 mb 0.00 in0.0 mm 0.00 in0.0 mm 0.13 in3.3 mm
10:55 PM 29.0°F-1.7°C 25.0°F-3.9°C 85% 4.0 mph WSW6.4 kmh WSW 9.0 mph14.5 kmh 29.54 in1000.3 mb 0.00 in0.0 mm 0.00 in0.0 mm 0.13 in3.3 mm
11:00 PM 29.2°F-1.6°C 25.2°F-3.8°C 85% 5.0 mph WSW8.0 kmh WSW -- 29.54 in1000.3 mb 0.00 in0.0 mm 0.00 in0.0 mm 0.10 in2.5 mm
11:05 PM 29.3°F-1.5°C 25.2°F-3.8°C 84% 6.0 mph WSW9.7 kmh WSW -- 29.54 in1000.3 mb 0.00 in0.0 mm 0.00 in0.0 mm 0.10 in2.5 mm
11:10 PM 29.1°F-1.6°C 25.0°F-3.9°C 84% 3.0 mph WSW4.8 kmh WSW -- 29.54 in1000.3 mb 0.00 in0.0 mm 0.00 in0.0 mm 0.10 in2.5 mm
11:15 PM 29.0°F-1.7°C 24.8°F-4.0°C 84% 5.0 mph WSW8.0 kmh WSW -- 29.54 in1000.3 mb 0.00 in0.0 mm 0.00 in0.0 mm 0.10 in2.5 mm
11:20 PM 29.4°F-1.4°C 25.0°F-3.9°C 83% 2.0 mph W3.2 kmh W 8.0 mph12.9 kmh 29.55 in1000.7 mb 0.00 in0.0 mm 0.00 in0.0 mm 0.10 in2.5 mm
11:25 PM 29.6°F-1.3°C 25.2°F-3.8°C 83% 1.0 mph W1.6 kmh W -- 29.55 in1000.7 mb 0.00 in0.0 mm 0.00 in0.0 mm 0.10 in2.5 mm
11:30 PM 29.6°F-1.3°C 24.8°F-4.0°C 82% 1.0 mph WSW1.6 kmh WSW -- 29.55 in1000.7 mb 0.00 in0.0 mm 0.00 in0.0 mm 0.10 in2.5 mm
11:35 PM 29.5°F-1.4°C 25.0°F-3.9°C 83% Calm Calm -- 29.55 in1000.7 mb 0.00 in0.0 mm 0.00 in0.0 mm 0.10 in2.5 mm
11:40 PM 29.7°F-1.3°C 25.2°F-3.8°C 83% 4.0 mph WNW6.4 kmh WNW -- 29.55 in1000.7 mb 0.00 in0.0 mm 0.00 in0.0 mm 0.10 in2.5 mm
11:45 PM 29.7°F-1.3°C 25.2°F-3.8°C 83% 2.0 mph W3.2 kmh W 5.0 mph8.0 kmh 29.55 in1000.7 mb 0.00 in0.0 mm 0.00 in0.0 mm 0.10 in2.5 mm
11:50 PM 29.3°F-1.5°C 24.8°F-4.0°C 83% 3.0 mph WSW4.8 kmh WSW -- 29.55 in1000.7 mb 0.00 in0.0 mm 0.00 in0.0 mm 0.10 in2.5 mm
11:55 PM 29.0°F-1.7°C 24.4°F-4.2°C 83% Calm Calm -- 29.55 in1000.7 mb 0.00 in0.0 mm 0.00 in0.0 mm 0.10 in2.5 mm